createdAt,value
2018-07-21T00:02:17.224Z,21.02
2018-07-21T00:04:45.899Z,21.02
2018-07-21T00:07:14.612Z,20.98
2018-07-21T00:09:43.341Z,20.95
2018-07-21T00:12:12.047Z,20.87
2018-07-21T00:14:40.868Z,20.86
2018-07-21T00:17:09.526Z,20.84
2018-07-21T00:19:38.238Z,20.81
2018-07-21T00:22:06.891Z,20.81
2018-07-21T00:24:35.607Z,20.78
2018-07-21T00:27:04.274Z,20.75
2018-07-21T00:29:33.069Z,20.75
2018-07-21T00:32:01.775Z,20.73
2018-07-21T00:34:30.416Z,20.72
2018-07-21T00:36:59.098Z,20.73
2018-07-21T00:39:27.832Z,20.69
2018-07-21T00:41:56.478Z,20.65
2018-07-21T00:44:25.154Z,20.65
2018-07-21T00:46:53.820Z,20.67
2018-07-21T00:49:22.463Z,20.63
2018-07-21T00:51:51.438Z,20.58
2018-07-21T00:54:20.075Z,20.59
2018-07-21T00:56:48.732Z,20.60
2018-07-21T00:59:17.345Z,20.56
2018-07-21T01:01:45.999Z,20.55
2018-07-21T01:04:14.648Z,20.53
2018-07-21T01:06:43.298Z,20.46
2018-07-21T01:09:12.020Z,20.39
2018-07-21T01:11:40.711Z,20.50
2018-07-21T01:14:09.453Z,20.49
2018-07-21T01:16:38.196Z,20.55
2018-07-21T01:19:07.298Z,20.50
2018-07-21T01:21:36.058Z,20.56
2018-07-21T01:24:04.765Z,20.56
2018-07-21T01:26:33.381Z,20.59
2018-07-21T01:29:02.017Z,20.58
2018-07-21T01:31:30.663Z,20.54
2018-07-21T01:33:59.286Z,20.53
2018-07-21T01:36:27.966Z,20.48
2018-07-21T01:38:56.618Z,20.48
2018-07-21T01:41:25.260Z,20.41
2018-07-21T01:43:53.915Z,20.43
2018-07-21T01:46:22.551Z,20.36
2018-07-21T01:48:51.199Z,20.39
2018-07-21T01:51:19.887Z,20.40
2018-07-21T01:53:48.550Z,20.39
2018-07-21T01:56:17.364Z,20.34
2018-07-21T01:58:46.078Z,20.35
2018-07-21T02:01:14.798Z,20.29
2018-07-21T02:03:46.504Z,20.26
2018-07-21T02:06:15.303Z,20.15
2018-07-21T02:08:44.314Z,20.14
2018-07-21T02:11:13.335Z,20.09
2018-07-21T02:13:42.482Z,20.11
2018-07-21T02:16:11.166Z,20.13
2018-07-21T02:18:39.827Z,20.16
2018-07-21T02:21:08.501Z,19.99
2018-07-21T02:23:37.256Z,20.00
2018-07-21T02:26:05.943Z,19.83
2018-07-21T02:28:34.620Z,19.82
2018-07-21T02:31:03.328Z,19.71
2018-07-21T02:33:31.957Z,19.65
2018-07-21T02:36:00.679Z,19.49
2018-07-21T02:38:29.400Z,19.45
2018-07-21T02:40:58.922Z,19.33
2018-07-21T02:43:27.562Z,19.25
2018-07-21T02:45:56.400Z,19.12
2018-07-21T02:48:25.014Z,19.04
2018-07-21T02:50:53.686Z,19.01
2018-07-21T02:53:22.332Z,18.90
2018-07-21T02:55:50.998Z,18.80
2018-07-21T02:58:19.643Z,18.72
2018-07-21T03:00:48.446Z,18.56
2018-07-21T03:03:17.072Z,18.46
2018-07-21T03:05:45.738Z,18.41
2018-07-21T03:08:14.477Z,18.36
2018-07-21T03:10:43.207Z,18.30
2018-07-21T03:13:11.937Z,18.32
2018-07-21T03:15:40.687Z,18.24
2018-07-21T03:18:09.372Z,18.21
2018-07-21T03:20:38.043Z,18.13
2018-07-21T03:23:06.837Z,18.12
2018-07-21T03:25:36.470Z,18.07
2018-07-21T03:28:05.264Z,18.03
2018-07-21T03:30:33.992Z,17.99
2018-07-21T03:33:02.705Z,17.96
2018-07-21T03:35:31.380Z,17.91
2018-07-21T03:38:00.128Z,17.95
2018-07-21T03:40:28.841Z,17.86
2018-07-21T03:42:57.607Z,17.87
2018-07-21T03:45:26.523Z,17.89
2018-07-21T03:47:55.194Z,17.96
2018-07-21T03:50:23.873Z,17.92
2018-07-21T03:52:52.548Z,17.94
2018-07-21T03:55:21.214Z,18.00
2018-07-21T03:57:49.910Z,18.01
2018-07-21T04:00:18.611Z,18.04
2018-07-21T04:02:47.270Z,18.03
2018-07-21T04:05:15.874Z,18.10
2018-07-21T04:07:44.517Z,18.11
2018-07-21T04:10:13.199Z,18.18
2018-07-21T04:12:41.854Z,18.22
2018-07-21T04:15:10.652Z,18.25
2018-07-21T04:17:39.302Z,18.24
2018-07-21T04:20:07.986Z,18.21
2018-07-21T04:22:36.714Z,18.29
2018-07-21T04:25:05.671Z,18.32
2018-07-21T04:27:34.310Z,18.34
2018-07-21T04:30:04.344Z,18.40
2018-07-21T04:32:32.994Z,18.46
2018-07-21T04:35:01.630Z,18.51
2018-07-21T04:37:30.350Z,18.57
2018-07-21T04:39:59.177Z,18.61
2018-07-21T04:42:27.938Z,18.65
2018-07-21T04:44:56.649Z,18.66
2018-07-21T04:47:25.314Z,18.71
2018-07-21T04:49:54.003Z,18.79
2018-07-21T04:52:22.650Z,18.82
2018-07-21T04:54:51.512Z,18.87
2018-07-21T04:57:20.158Z,19.00
2018-07-21T04:59:48.813Z,19.09
2018-07-21T05:02:17.504Z,19.18
2018-07-21T05:04:46.171Z,19.25
2018-07-21T05:07:14.854Z,19.35
2018-07-21T05:09:43.603Z,19.40
2018-07-21T05:12:12.241Z,19.45
2018-07-21T05:14:40.941Z,19.53
2018-07-21T05:17:09.655Z,19.57
2018-07-21T05:19:38.294Z,19.68
2018-07-21T05:22:07.326Z,19.71
2018-07-21T05:24:36.022Z,19.79
2018-07-21T05:27:04.783Z,19.83
2018-07-21T05:29:33.424Z,19.86
2018-07-21T05:32:02.141Z,19.97
2018-07-21T05:34:30.852Z,20.03
2018-07-21T05:36:59.546Z,20.12
2018-07-21T05:39:28.247Z,20.21
2018-07-21T05:41:56.923Z,20.29
2018-07-21T05:44:25.608Z,20.33
2018-07-21T05:46:54.255Z,20.41
2018-07-21T05:49:23.006Z,20.51
2018-07-21T05:51:51.668Z,20.64
2018-07-21T05:54:20.310Z,20.71
2018-07-21T05:56:49.072Z,20.78
2018-07-21T05:59:17.730Z,20.85
2018-07-21T06:01:46.458Z,20.94
2018-07-21T06:04:15.119Z,20.92
2018-07-21T06:06:43.826Z,21.03
2018-07-21T06:09:12.863Z,21.05
2018-07-21T06:11:41.932Z,21.14
2018-07-21T06:14:11.079Z,21.28
2018-07-21T06:16:39.785Z,21.31
2018-07-21T06:19:08.503Z,21.32
2018-07-21T06:21:37.199Z,21.37
2018-07-21T06:24:06.006Z,21.45
2018-07-21T06:26:34.715Z,21.52
2018-07-21T06:29:03.435Z,21.65
2018-07-21T06:31:32.104Z,21.76
2018-07-21T06:34:00.783Z,21.78
2018-07-21T06:36:29.419Z,21.80
2018-07-21T06:38:58.124Z,21.83
2018-07-21T06:41:26.883Z,21.99
2018-07-21T06:43:55.595Z,22.10
2018-07-21T06:46:24.302Z,22.12
2018-07-21T06:48:52.950Z,22.33
2018-07-21T06:51:21.645Z,22.39
2018-07-21T06:53:50.315Z,22.31
2018-07-21T06:56:18.983Z,22.31
2018-07-21T06:58:47.672Z,22.46
2018-07-21T07:01:16.396Z,22.58
2018-07-21T07:03:45.223Z,22.60
2018-07-21T07:06:13.875Z,22.62
2018-07-21T07:08:42.668Z,22.60
2018-07-21T07:11:11.347Z,22.64
2018-07-21T07:13:40.037Z,22.58
2018-07-21T07:16:08.841Z,22.75
2018-07-21T07:18:37.516Z,22.80
2018-07-21T07:21:06.211Z,22.76
2018-07-21T07:23:34.861Z,22.80
2018-07-21T07:26:04.370Z,22.96
2018-07-21T07:28:33.047Z,23.14
2018-07-21T07:31:01.758Z,23.06
2018-07-21T07:33:30.477Z,23.02
2018-07-21T07:35:59.199Z,23.14
2018-07-21T07:38:27.885Z,23.03
2018-07-21T07:40:56.566Z,23.08
2018-07-21T07:43:25.226Z,23.20
2018-07-21T07:45:53.913Z,23.30
2018-07-21T07:48:22.537Z,23.49
2018-07-21T07:50:51.182Z,23.65
2018-07-21T07:53:19.874Z,23.71
2018-07-21T07:55:55.390Z,23.78
2018-07-21T07:58:24.111Z,23.93
2018-07-21T08:00:52.787Z,24.06
2018-07-21T08:03:21.528Z,24.18
2018-07-21T08:05:50.143Z,24.35
2018-07-21T08:08:19.006Z,24.55
2018-07-21T08:10:47.706Z,24.44
2018-07-21T08:13:16.362Z,24.19
2018-07-21T08:15:45.714Z,24.20
2018-07-21T08:18:17.090Z,24.01
2018-07-21T08:20:47.337Z,23.85
2018-07-21T08:23:20.815Z,23.76
2018-07-21T08:25:52.790Z,23.98
2018-07-21T08:28:21.649Z,24.13
2018-07-21T08:30:50.442Z,24.09
2018-07-21T08:33:19.707Z,24.10
2018-07-21T08:35:48.351Z,24.02
2018-07-21T08:38:17.011Z,24.28
2018-07-21T08:40:45.661Z,24.46
2018-07-21T08:43:15.179Z,24.38
2018-07-21T08:45:43.801Z,24.69
2018-07-21T08:48:12.455Z,24.79
2018-07-21T08:50:41.109Z,24.87
2018-07-21T08:53:09.803Z,25.04
2018-07-21T08:55:42.952Z,25.04
2018-07-21T08:58:11.660Z,25.05
2018-07-21T09:00:40.311Z,25.17
2018-07-21T09:03:08.991Z,25.20
2018-07-21T09:05:37.776Z,24.95
2018-07-21T09:08:07.932Z,24.83
2018-07-21T09:10:36.746Z,24.86
2018-07-21T09:13:05.480Z,25.00
2018-07-21T09:15:34.161Z,25.13
2018-07-21T09:18:02.820Z,25.13
2018-07-21T09:20:31.511Z,25.03
2018-07-21T09:23:00.202Z,25.09
2018-07-21T09:25:28.866Z,25.21
2018-07-21T09:27:57.540Z,25.21
2018-07-21T09:30:26.372Z,25.19
2018-07-21T09:32:55.131Z,25.20
2018-07-21T09:35:23.892Z,25.37
2018-07-21T09:37:52.588Z,25.50
2018-07-21T09:40:21.286Z,25.49
2018-07-21T09:42:49.979Z,25.62
2018-07-21T09:45:18.714Z,25.68
2018-07-21T09:47:47.406Z,25.82
2018-07-21T09:50:16.068Z,26.01
2018-07-21T09:52:44.761Z,26.11
2018-07-21T09:55:13.482Z,26.13
2018-07-21T09:57:42.278Z,26.02
2018-07-21T10:00:12.924Z,25.99
2018-07-21T10:02:41.592Z,25.90
2018-07-21T10:05:10.258Z,26.10
2018-07-21T10:07:38.930Z,26.28
2018-07-21T10:10:07.621Z,26.33
2018-07-21T10:12:36.386Z,26.54
2018-07-21T10:15:05.360Z,26.48
2018-07-21T10:17:34.078Z,26.60
2018-07-21T10:20:02.778Z,26.73
2018-07-21T10:22:31.496Z,26.75
2018-07-21T10:25:05.356Z,26.63
2018-07-21T10:27:39.284Z,26.66
2018-07-21T10:30:08.158Z,26.68
2018-07-21T10:32:36.855Z,26.78
2018-07-21T10:35:05.591Z,26.63
2018-07-21T10:37:34.294Z,26.82
2018-07-21T10:40:02.935Z,27.03
2018-07-21T10:42:31.671Z,27.00
2018-07-21T10:45:00.417Z,27.17
2018-07-21T10:47:29.525Z,26.97
2018-07-21T10:49:58.212Z,27.11
2018-07-21T10:52:26.972Z,27.07
2018-07-21T10:54:55.668Z,27.10
2018-07-21T10:57:24.393Z,27.30
2018-07-21T10:59:53.092Z,27.47
2018-07-21T11:02:21.848Z,27.50
2018-07-21T11:04:50.525Z,27.89
2018-07-21T11:07:19.197Z,27.96
2018-07-21T11:09:47.894Z,27.92
2018-07-21T11:12:16.616Z,28.26
2018-07-21T11:14:45.378Z,28.27
2018-07-21T11:17:14.080Z,28.91
2018-07-21T11:19:42.793Z,29.62
2018-07-21T11:22:11.577Z,29.94
2018-07-21T11:41:32.768Z,29.93
2018-07-21T11:45:51.328Z,31.02
2018-07-21T12:15:52.748Z,30.90
2018-07-21T12:22:00.551Z,31.60
2018-07-21T12:24:29.243Z,32.04
2018-07-21T12:29:55.664Z,32.65
2018-07-21T12:32:24.406Z,32.37
2018-07-21T12:34:53.170Z,32.00
2018-07-21T12:37:21.876Z,31.43
2018-07-21T12:39:50.623Z,32.17
2018-07-21T12:42:19.331Z,31.75
2018-07-21T12:44:48.095Z,31.67
2018-07-21T12:47:16.876Z,32.33
2018-07-21T12:49:45.577Z,32.85
2018-07-21T12:52:14.374Z,33.09
2018-07-21T12:54:43.022Z,32.00
2018-07-21T12:57:11.774Z,31.94
2018-07-21T12:59:40.463Z,31.52
2018-07-21T13:02:09.189Z,31.92
2018-07-21T13:04:37.885Z,31.63
2018-07-21T13:07:06.589Z,32.27
2018-07-21T13:09:35.333Z,33.04
2018-07-21T13:12:04.040Z,32.11
2018-07-21T13:14:32.742Z,31.98
2018-07-21T13:17:01.483Z,31.76
2018-07-21T13:19:30.214Z,31.72
2018-07-21T13:21:58.994Z,31.34
2018-07-21T13:24:27.736Z,31.64
2018-07-21T13:26:56.456Z,32.10
2018-07-21T13:29:25.183Z,31.91
2018-07-21T13:31:53.920Z,31.99
2018-07-21T13:34:22.651Z,32.33
2018-07-21T13:36:51.386Z,32.39
2018-07-21T13:39:20.079Z,32.50
2018-07-21T13:41:48.916Z,32.70
2018-07-21T13:44:17.683Z,32.98
2018-07-21T14:20:06.030Z,31.88
2018-07-21T14:22:55.818Z,31.42
2018-07-21T14:25:24.512Z,31.99
2018-07-21T14:27:53.182Z,32.50
2018-07-21T14:30:21.886Z,32.60
2018-07-21T14:32:50.535Z,31.77
2018-07-21T14:35:19.326Z,31.91
2018-07-21T14:37:48.041Z,31.49
2018-07-21T14:40:16.843Z,32.28
2018-07-21T14:42:45.556Z,32.08
2018-07-21T14:45:14.267Z,31.81
2018-07-21T14:47:42.938Z,31.62
2018-07-21T14:50:11.738Z,32.10
2018-07-21T14:52:40.472Z,32.26
2018-07-21T14:55:09.159Z,32.57
2018-07-21T14:57:37.854Z,32.49
2018-07-21T15:00:08.226Z,32.36
2018-07-21T15:02:36.880Z,32.80
2018-07-21T15:05:05.583Z,33.19
2018-07-21T15:07:34.639Z,33.85
2018-07-21T15:10:03.464Z,34.12
2018-07-21T15:12:32.492Z,34.29
2018-07-21T15:15:01.803Z,33.60
2018-07-21T15:17:30.653Z,32.80
2018-07-21T15:19:59.360Z,33.13
2018-07-21T15:22:28.098Z,33.34
2018-07-21T15:24:56.810Z,33.19
2018-07-21T15:27:25.474Z,32.87
2018-07-21T15:29:54.141Z,32.71
2018-07-21T15:32:22.924Z,32.01
2018-07-21T15:34:51.726Z,32.18
2018-07-21T15:37:20.399Z,31.53
2018-07-21T15:39:49.106Z,31.27
2018-07-21T15:42:17.726Z,30.81
2018-07-21T15:44:46.462Z,30.71
2018-07-21T15:47:15.114Z,30.88
2018-07-21T15:49:43.787Z,31.29
2018-07-21T15:52:12.488Z,31.51
2018-07-21T15:54:41.213Z,31.84
2018-07-21T15:57:09.914Z,31.91
2018-07-21T15:59:38.748Z,31.55
2018-07-21T16:02:07.517Z,31.63
2018-07-21T16:04:36.279Z,31.39
2018-07-21T16:07:05.043Z,31.51
2018-07-21T16:09:33.737Z,31.14
2018-07-21T16:12:02.749Z,31.04
2018-07-21T16:14:31.458Z,30.91
2018-07-21T16:17:00.234Z,30.97
2018-07-21T16:19:28.910Z,31.13
2018-07-21T16:21:57.674Z,31.07
2018-07-21T16:24:26.388Z,31.23
2018-07-21T16:26:55.158Z,31.74
2018-07-21T16:29:23.950Z,32.06
2018-07-21T16:31:52.595Z,31.53
2018-07-21T16:34:21.282Z,31.75
2018-07-21T16:36:49.996Z,31.25
2018-07-21T16:39:18.811Z,31.28
2018-07-21T16:41:47.547Z,30.90
2018-07-21T16:44:16.254Z,30.75
2018-07-21T16:46:44.985Z,30.86
2018-07-21T16:49:13.702Z,30.78
2018-07-21T16:51:42.396Z,30.36
2018-07-21T16:54:11.118Z,30.16
2018-07-21T16:56:39.916Z,30.24
2018-07-21T16:59:08.644Z,29.99
2018-07-21T17:01:37.298Z,29.89
2018-07-21T17:04:06.996Z,29.94
2018-07-21T17:06:39.050Z,29.74
2018-07-21T17:09:17.163Z,29.54
2018-07-21T17:11:46.502Z,29.55
2018-07-21T17:14:15.186Z,29.39
2018-07-21T17:16:45.612Z,29.17
2018-07-21T17:19:14.327Z,28.82
2018-07-21T17:21:43.014Z,28.85
2018-07-21T17:24:11.676Z,28.74
2018-07-21T17:26:40.392Z,28.44
2018-07-21T17:29:10.872Z,28.53
2018-07-21T17:31:40.115Z,28.37
2018-07-21T17:34:08.873Z,28.38
2018-07-21T17:36:37.592Z,28.08
2018-07-21T17:39:08.527Z,28.03
2018-07-21T17:41:37.223Z,27.89
2018-07-21T17:44:07.108Z,27.77
2018-07-21T17:46:37.920Z,27.67
2018-07-21T17:49:10.446Z,27.47
2018-07-21T17:51:40.351Z,27.53
2018-07-21T17:54:09.146Z,27.35
2018-07-21T17:56:40.172Z,27.38
2018-07-21T17:59:08.970Z,27.34
2018-07-21T18:01:39.477Z,27.28
2018-07-21T18:04:10.953Z,27.20
2018-07-21T18:06:39.691Z,27.21
2018-07-21T18:09:09.686Z,27.13
2018-07-21T18:11:38.464Z,27.10
2018-07-21T18:14:07.218Z,27.13
2018-07-21T18:16:35.947Z,26.88
2018-07-21T18:19:04.754Z,26.81
2018-07-21T18:21:33.468Z,26.67
2018-07-21T18:24:02.200Z,26.65
2018-07-21T18:26:30.911Z,26.46
2018-07-21T18:28:59.561Z,26.39
2018-07-21T18:31:28.413Z,26.30
2018-07-21T18:33:57.052Z,26.35
2018-07-21T18:36:25.828Z,26.30
2018-07-21T18:38:54.569Z,26.26
2018-07-21T18:41:26.158Z,26.24
2018-07-21T18:43:56.211Z,26.06
2018-07-21T18:46:27.129Z,25.82
2018-07-21T18:48:56.785Z,25.62
2018-07-21T18:51:27.041Z,25.67
2018-07-21T18:53:56.543Z,25.60
2018-07-21T18:56:26.363Z,25.57
2018-07-21T18:58:56.293Z,25.41
2018-07-21T19:01:25.928Z,25.28
2018-07-21T19:03:55.258Z,25.25
2018-07-21T19:06:24.095Z,25.25
2018-07-21T19:08:59.036Z,25.17
2018-07-21T19:11:28.769Z,25.11
2018-07-21T19:13:58.742Z,24.91
2018-07-21T19:16:32.767Z,24.99
2018-07-21T19:19:01.585Z,25.00
2018-07-21T19:21:30.358Z,25.03
2018-07-21T19:23:59.067Z,24.91
2018-07-21T19:26:33.014Z,25.05
2018-07-21T19:29:01.665Z,25.06
2018-07-21T19:31:30.436Z,25.02
2018-07-21T19:33:59.118Z,25.07
2018-07-21T19:36:27.794Z,25.07
2018-07-21T19:38:56.539Z,25.11
2018-07-21T19:41:30.250Z,25.06
2018-07-21T19:43:58.990Z,25.02
2018-07-21T19:46:27.740Z,25.05
2018-07-21T19:48:56.410Z,25.08
2018-07-21T19:51:25.103Z,25.10
2018-07-21T19:53:53.772Z,25.08
2018-07-21T19:56:23.299Z,25.05
2018-07-21T19:58:52.150Z,25.01
2018-07-21T20:01:21.164Z,25.00
2018-07-21T20:03:49.877Z,24.93
2018-07-21T20:06:18.554Z,24.81
2018-07-21T20:08:47.239Z,24.72
2018-07-21T20:11:15.913Z,24.58
2018-07-21T20:13:44.623Z,24.45
2018-07-21T20:16:13.273Z,24.31
2018-07-21T20:18:42.157Z,24.24
2018-07-21T20:21:10.925Z,24.21
2018-07-21T20:23:39.589Z,24.18
2018-07-21T20:26:08.267Z,24.14
2018-07-21T20:28:37.339Z,24.15
2018-07-21T20:31:06.018Z,24.13
2018-07-21T20:33:34.674Z,24.05
2018-07-21T20:36:03.397Z,23.92
2018-07-21T20:38:32.089Z,23.86
2018-07-21T20:41:00.902Z,23.71
2018-07-21T20:43:29.616Z,23.63
2018-07-21T20:45:58.271Z,23.51
2018-07-21T20:48:27.056Z,23.47
2018-07-21T20:50:56.347Z,23.40
2018-07-21T20:53:25.022Z,23.37
2018-07-21T20:55:53.750Z,23.25
2018-07-21T20:58:22.434Z,23.25
2018-07-21T21:00:51.299Z,23.18
2018-07-21T21:03:20.012Z,23.23
2018-07-21T21:05:48.689Z,23.25
2018-07-21T21:08:17.415Z,23.24
2018-07-21T21:10:46.105Z,23.13
2018-07-21T21:13:14.862Z,23.11
2018-07-21T21:15:43.595Z,23.05
2018-07-21T21:18:12.295Z,22.99
2018-07-21T21:20:40.964Z,22.92
2018-07-21T21:23:09.709Z,22.95
2018-07-21T21:25:38.414Z,22.85
2018-07-21T21:28:07.299Z,22.77
2018-07-21T21:30:36.002Z,22.77
2018-07-21T21:33:04.674Z,22.69
2018-07-21T21:35:33.378Z,22.66
2018-07-21T21:38:02.062Z,22.68
2018-07-21T21:40:30.742Z,22.65
2018-07-21T21:42:59.461Z,22.62
2018-07-21T21:45:28.142Z,22.60
2018-07-21T21:47:56.839Z,22.60
2018-07-21T21:50:25.626Z,22.52
2018-07-21T21:52:54.345Z,22.50
2018-07-21T21:55:23.015Z,22.43
2018-07-21T21:57:52.142Z,22.30
2018-07-21T22:00:21.046Z,22.33
2018-07-21T22:02:49.684Z,22.31
2018-07-21T22:07:45.986Z,22.21
2018-07-21T22:10:14.735Z,22.17
2018-07-21T22:12:43.586Z,22.08
2018-07-21T22:15:16.389Z,22.01
2018-07-21T22:17:45.116Z,22.00
2018-07-21T22:20:13.807Z,22.02
2018-07-21T22:22:42.498Z,22.00
2018-07-21T22:25:11.134Z,22.01
2018-07-21T22:27:39.881Z,21.88
2018-07-21T22:30:08.662Z,21.89
2018-07-21T22:32:37.275Z,21.80
2018-07-21T22:35:06.067Z,21.83
2018-07-21T22:37:34.740Z,21.72
2018-07-21T22:40:03.422Z,21.70
2018-07-21T22:42:32.084Z,21.60
2018-07-21T22:45:00.779Z,21.59
2018-07-21T22:47:29.439Z,21.53
2018-07-21T22:49:58.142Z,21.46
2018-07-21T22:52:26.898Z,21.42
2018-07-21T22:54:55.595Z,21.25
2018-07-21T22:57:24.234Z,21.21
2018-07-21T22:59:53.005Z,21.14
2018-07-21T23:02:21.659Z,21.10
2018-07-21T23:04:50.354Z,21.10
2018-07-21T23:07:19.037Z,21.03
2018-07-21T23:09:47.702Z,20.96
2018-07-21T23:12:16.354Z,20.95
2018-07-21T23:14:45.075Z,20.97
2018-07-21T23:17:13.738Z,20.94
2018-07-21T23:19:42.402Z,20.85
2018-07-21T23:22:11.041Z,20.70
2018-07-21T23:24:39.742Z,20.66
2018-07-21T23:27:08.413Z,20.67
2018-07-21T23:29:37.077Z,20.59
2018-07-21T23:32:05.871Z,20.55
2018-07-21T23:34:34.588Z,20.54
2018-07-21T23:37:03.281Z,20.50
2018-07-21T23:39:31.902Z,20.48
2018-07-21T23:42:00.640Z,20.48
2018-07-21T23:44:29.360Z,20.50
2018-07-21T23:46:58.094Z,20.50
2018-07-21T23:49:26.739Z,20.52
2018-07-21T23:51:55.520Z,20.49
2018-07-21T23:54:24.359Z,20.51
2018-07-21T23:56:53.070Z,20.53
2018-07-21T23:59:21.985Z,20.52
